sensor_id;sensor_type;location;lat;lon;timestamp;pressure;altitude;pressure_sealevel;temperature;humidity
48862;BME280;34681;49.188;-0.374;2023-04-08T00:02:14;102046.19;;;10.25;61.33
48862;BME280;34681;49.188;-0.374;2023-04-08T00:04:40;102041.41;;;10.03;61.46
48862;BME280;34681;49.188;-0.374;2023-04-08T00:07:05;102045.22;;;9.88;61.89
48862;BME280;34681;49.188;-0.374;2023-04-08T00:09:31;102046.19;;;10.12;61.20
48862;BME280;34681;49.188;-0.374;2023-04-08T00:11:57;102038.72;;;10.14;61.24
48862;BME280;34681;49.188;-0.374;2023-04-08T00:14:22;102041.41;;;10.03;61.33
48862;BME280;34681;49.188;-0.374;2023-04-08T00:16:47;102047.63;;;9.92;61.71
48862;BME280;34681;49.188;-0.374;2023-04-08T00:19:13;102047.63;;;9.92;61.71
48862;BME280;34681;49.188;-0.374;2023-04-08T00:21:38;102045.84;;;10.17;60.83
48862;BME280;34681;49.188;-0.374;2023-04-08T00:24:04;102038.88;;;10.00;61.36
48862;BME280;34681;49.188;-0.374;2023-04-08T00:26:29;102044.47;;;9.85;61.86
48862;BME280;34681;49.188;-0.374;2023-04-08T00:28:54;102036.41;;;10.33;60.74
48862;BME280;34681;49.188;-0.374;2023-04-08T00:31:20;102038.84;;;10.62;59.87
48862;BME280;34681;49.188;-0.374;2023-04-08T00:33:45;102039.53;;;10.53;60.08
48862;BME280;34681;49.188;-0.374;2023-04-08T00:36:11;102038.25;;;10.46;60.14
48862;BME280;34681;49.188;-0.374;2023-04-08T00:38:36;102037.50;;;10.44;60.10
48862;BME280;34681;49.188;-0.374;2023-04-08T00:41:01;102033.22;;;10.39;59.98
48862;BME280;34681;49.188;-0.374;2023-04-08T00:43:27;102034.25;;;10.62;59.74
48862;BME280;34681;49.188;-0.374;2023-04-08T00:45:52;102036.41;;;10.70;59.64
48862;BME280;34681;49.188;-0.374;2023-04-08T00:48:18;102042.91;;;11.04;58.31
48862;BME280;34681;49.188;-0.374;2023-04-08T00:50:43;102038.53;;;11.37;57.11
48862;BME280;34681;49.188;-0.374;2023-04-08T00:53:08;102036.47;;;11.51;56.63
48862;BME280;34681;49.188;-0.374;2023-04-08T00:55:34;102025.63;;;11.61;56.34
48862;BME280;34681;49.188;-0.374;2023-04-08T00:58:00;102033.22;;;11.58;56.52
48862;BME280;34681;49.188;-0.374;2023-04-08T01:00:28;102032.84;;;11.62;56.64
48862;BME280;34681;49.188;-0.374;2023-04-08T01:08:19;102041.16;;;11.49;57.38
48862;BME280;34681;49.188;-0.374;2023-04-08T01:10:48;102040.69;;;11.44;57.64
48862;BME280;34681;49.188;-0.374;2023-04-08T01:13:17;102038.94;;;11.43;57.71
48862;BME280;34681;49.188;-0.374;2023-04-08T01:15:43;102035.91;;;11.35;58.15
48862;BME280;34681;49.188;-0.374;2023-04-08T01:18:11;102042.41;;;11.34;58.00
48862;BME280;34681;49.188;-0.374;2023-04-08T01:20:39;102039.75;;;11.33;57.87
48862;BME280;34681;49.188;-0.374;2023-04-08T01:25:32;102035.53;;;11.29;57.99
48862;BME280;34681;49.188;-0.374;2023-04-08T01:27:59;102036.53;;;11.28;58.06
48862;BME280;34681;49.188;-0.374;2023-04-08T01:30:27;102039.31;;;11.15;58.66
48862;BME280;34681;49.188;-0.374;2023-04-08T01:32:55;102037.25;;;11.18;58.38
48862;BME280;34681;49.188;-0.374;2023-04-08T01:35:21;102040.31;;;11.14;58.69
48862;BME280;34681;49.188;-0.374;2023-04-08T01:37:51;102030.84;;;11.07;58.65
48862;BME280;34681;49.188;-0.374;2023-04-08T01:40:18;102043.91;;;11.03;58.95
48862;BME280;34681;49.188;-0.374;2023-04-08T01:42:46;102039.28;;;11.04;58.91
48862;BME280;34681;49.188;-0.374;2023-04-08T01:45:13;102040.78;;;11.08;58.64
48862;BME280;34681;49.188;-0.374;2023-04-08T01:47:40;102043.25;;;11.00;58.98
48862;BME280;34681;49.188;-0.374;2023-04-08T01:50:07;102047.84;;;10.99;58.88
48862;BME280;34681;49.188;-0.374;2023-04-08T01:52:34;102047.06;;;10.86;59.47
48862;BME280;34681;49.188;-0.374;2023-04-08T01:55:02;102045.59;;;10.93;59.18
48862;BME280;34681;49.188;-0.374;2023-04-08T01:57:30;102044.19;;;10.63;59.90
48862;BME280;34681;49.188;-0.374;2023-04-08T02:00:00;102047.34;;;10.46;60.62
48862;BME280;34681;49.188;-0.374;2023-04-08T02:02:27;102051.75;;;10.23;61.34
48862;BME280;34681;49.188;-0.374;2023-04-08T02:04:53;102052.06;;;10.44;61.09
48862;BME280;34681;49.188;-0.374;2023-04-08T02:07:19;102046.41;;;10.58;60.48
48862;BME280;34681;49.188;-0.374;2023-04-08T02:09:45;102058.03;;;10.49;60.78
48862;BME280;34681;49.188;-0.374;2023-04-08T02:12:10;102050.63;;;10.38;60.99
48862;BME280;34681;49.188;-0.374;2023-04-08T02:14:36;102049.56;;;10.65;60.18
48862;BME280;34681;49.188;-0.374;2023-04-08T02:17:09;102048.19;;;10.59;60.36
48862;BME280;34681;49.188;-0.374;2023-04-08T02:19:43;102054.28;;;10.13;61.47
48862;BME280;34681;49.188;-0.374;2023-04-08T02:25:08;102057.47;;;10.57;60.47
48862;BME280;34681;49.188;-0.374;2023-04-08T02:27:36;102056.78;;;10.29;61.00
48862;BME280;34681;49.188;-0.374;2023-04-08T02:30:04;102068.34;;;10.46;60.80
48862;BME280;34681;49.188;-0.374;2023-04-08T02:32:32;102064.56;;;10.83;59.00
48862;BME280;34681;49.188;-0.374;2023-04-08T02:34:58;102063.63;;;10.84;58.72
48862;BME280;34681;49.188;-0.374;2023-04-08T02:37:25;102060.38;;;10.90;58.51
48862;BME280;34681;49.188;-0.374;2023-04-08T02:39:52;102063.91;;;10.68;58.78
48862;BME280;34681;49.188;-0.374;2023-04-08T02:42:17;102062.34;;;10.77;58.94
48862;BME280;34681;49.188;-0.374;2023-04-08T02:44:42;102068.69;;;10.78;58.91
48862;BME280;34681;49.188;-0.374;2023-04-08T02:47:08;102063.66;;;10.72;58.99
48862;BME280;34681;49.188;-0.374;2023-04-08T02:49:33;102065.53;;;10.71;58.80
48862;BME280;34681;49.188;-0.374;2023-04-08T02:51:58;102072.19;;;10.67;58.88
48862;BME280;34681;49.188;-0.374;2023-04-08T02:54:24;102073.31;;;10.64;59.21
48862;BME280;34681;49.188;-0.374;2023-04-08T02:56:49;102075.19;;;10.64;59.18
48862;BME280;34681;49.188;-0.374;2023-04-08T02:59:15;102077.16;;;10.62;59.27
48862;BME280;34681;49.188;-0.374;2023-04-08T03:01:41;102075.63;;;10.58;59.17
48862;BME280;34681;49.188;-0.374;2023-04-08T03:04:06;102074.00;;;10.55;59.33
48862;BME280;34681;49.188;-0.374;2023-04-08T03:06:32;102075.13;;;10.53;59.21
48862;BME280;34681;49.188;-0.374;2023-04-08T03:08:57;102080.06;;;10.48;59.15
48862;BME280;34681;49.188;-0.374;2023-04-08T03:11:22;102075.56;;;10.47;59.25
48862;BME280;34681;49.188;-0.374;2023-04-08T03:13:48;102090.56;;;10.41;59.22
48862;BME280;34681;49.188;-0.374;2023-04-08T03:16:13;102078.31;;;10.34;59.16
48862;BME280;34681;49.188;-0.374;2023-04-08T03:18:39;102082.91;;;10.33;59.36
48862;BME280;34681;49.188;-0.374;2023-04-08T03:21:04;102087.53;;;10.33;59.33
48862;BME280;34681;49.188;-0.374;2023-04-08T03:23:30;102081.06;;;10.34;59.24
48862;BME280;34681;49.188;-0.374;2023-04-08T03:25:55;102083.78;;;10.34;59.21
48862;BME280;34681;49.188;-0.374;2023-04-08T03:28:20;102077.81;;;10.29;59.65
48862;BME280;34681;49.188;-0.374;2023-04-08T03:30:46;102079.66;;;10.28;59.44
48862;BME280;34681;49.188;-0.374;2023-04-08T03:33:11;102092.25;;;10.18;59.95
48862;BME280;34681;49.188;-0.374;2023-04-08T03:35:36;102091.59;;;9.89;60.54
48862;BME280;34681;49.188;-0.374;2023-04-08T03:38:03;102088.72;;;10.16;59.83
48862;BME280;34681;49.188;-0.374;2023-04-08T03:40:28;102091.69;;;10.13;59.86
48862;BME280;34681;49.188;-0.374;2023-04-08T03:42:53;102095.31;;;10.13;59.97
48862;BME280;34681;49.188;-0.374;2023-04-08T03:45:19;102097.41;;;10.23;59.22
48862;BME280;34681;49.188;-0.374;2023-04-08T03:47:44;102100.75;;;10.01;60.04
48862;BME280;34681;49.188;-0.374;2023-04-08T03:50:10;102100.56;;;10.04;60.07
48862;BME280;34681;49.188;-0.374;2023-04-08T03:52:35;102096.84;;;10.05;60.09
48862;BME280;34681;49.188;-0.374;2023-04-08T03:55:01;102105.16;;;10.03;60.05
48862;BME280;34681;49.188;-0.374;2023-04-08T03:57:26;102099.13;;;9.98;60.24
48862;BME280;34681;49.188;-0.374;2023-04-08T03:59:52;102103.97;;;9.95;60.03
48862;BME280;34681;49.188;-0.374;2023-04-08T04:02:17;102103.09;;;9.94;60.13
48862;BME280;34681;49.188;-0.374;2023-04-08T04:04:42;102113.78;;;9.97;59.83
48862;BME280;34681;49.188;-0.374;2023-04-08T04:07:08;102107.56;;;9.95;60.17
48862;BME280;34681;49.188;-0.374;2023-04-08T04:09:33;102110.31;;;9.95;60.07
48862;BME280;34681;49.188;-0.374;2023-04-08T04:11:59;102107.56;;;9.95;60.08
48862;BME280;34681;49.188;-0.374;2023-04-08T04:14:24;102104.16;;;9.92;60.15
48862;BME280;34681;49.188;-0.374;2023-04-08T04:16:50;102113.69;;;9.86;60.36
48862;BME280;34681;49.188;-0.374;2023-04-08T04:19:15;102110.16;;;9.58;60.88
48862;BME280;34681;49.188;-0.374;2023-04-08T04:21:42;102114.13;;;9.80;60.45
48862;BME280;34681;49.188;-0.374;2023-04-08T04:24:07;102112.81;;;9.85;60.37
48862;BME280;34681;49.188;-0.374;2023-04-08T04:26:33;102119.56;;;9.54;61.18
48862;BME280;34681;49.188;-0.374;2023-04-08T04:28:58;102117.47;;;9.58;61.36
48862;BME280;34681;49.188;-0.374;2023-04-08T04:31:24;102118.84;;;9.78;60.34
48862;BME280;34681;49.188;-0.374;2023-04-08T04:33:52;102125.28;;;9.77;60.54
48862;BME280;34681;49.188;-0.374;2023-04-08T04:36:18;102121.56;;;9.78;60.35
48862;BME280;34681;49.188;-0.374;2023-04-08T04:38:44;102118.34;;;9.58;60.57
48862;BME280;34681;49.188;-0.374;2023-04-08T04:41:10;102115.63;;;9.58;61.10
48862;BME280;34681;49.188;-0.374;2023-04-08T04:43:36;102116.22;;;9.76;60.53
48862;BME280;34681;49.188;-0.374;2023-04-08T04:46:01;102120.13;;;9.72;60.25
48862;BME280;34681;49.188;-0.374;2023-04-08T04:48:31;102121.44;;;9.67;60.41
48862;BME280;34681;49.188;-0.374;2023-04-08T04:50:58;102133.00;;;9.45;61.01
48862;BME280;34681;49.188;-0.374;2023-04-08T04:53:25;102138.59;;;9.56;61.22
48862;BME280;34681;49.188;-0.374;2023-04-08T04:55:50;102136.06;;;9.53;61.34
48862;BME280;34681;49.188;-0.374;2023-04-08T04:58:16;102137.06;;;9.65;60.97
48862;BME280;34681;49.188;-0.374;2023-04-08T05:00:42;102137.47;;;9.46;61.31
48862;BME280;34681;49.188;-0.374;2023-04-08T05:03:08;102134.84;;;9.44;61.77
48862;BME280;34681;49.188;-0.374;2023-04-08T05:05:33;102143.59;;;9.49;61.60
48862;BME280;34681;49.188;-0.374;2023-04-08T05:07:58;102137.38;;;9.47;61.71
48862;BME280;34681;49.188;-0.374;2023-04-08T05:10:23;102138.09;;;9.37;62.00
48862;BME280;34681;49.188;-0.374;2023-04-08T05:12:49;102153.00;;;8.91;63.76
48862;BME280;34681;49.188;-0.374;2023-04-08T05:15:14;102151.25;;;8.90;64.43
48862;BME280;34681;49.188;-0.374;2023-04-08T05:17:40;102150.47;;;9.15;63.61
48862;BME280;34681;49.188;-0.374;2023-04-08T05:20:06;102159.78;;;9.13;63.80
48862;BME280;34681;49.188;-0.374;2023-04-08T05:22:31;102155.25;;;9.39;62.69
48862;BME280;34681;49.188;-0.374;2023-04-08T05:24:57;102153.69;;;9.22;63.17
48862;BME280;34681;49.188;-0.374;2023-04-08T05:27:22;102161.25;;;9.31;63.09
48862;BME280;34681;49.188;-0.374;2023-04-08T05:29:48;102172.34;;;9.15;63.20
48862;BME280;34681;49.188;-0.374;2023-04-08T05:32:13;102165.25;;;9.52;62.30
48862;BME280;34681;49.188;-0.374;2023-04-08T05:34:40;102168.63;;;9.56;61.95
48862;BME280;34681;49.188;-0.374;2023-04-08T05:37:06;102174.91;;;9.83;61.00
48862;BME280;34681;49.188;-0.374;2023-04-08T05:39:31;102172.22;;;9.96;60.56
48862;BME280;34681;49.188;-0.374;2023-04-08T05:41:56;102174.94;;;10.09;60.05
48862;BME280;34681;49.188;-0.374;2023-04-08T05:44:21;102186.66;;;10.11;59.87
48862;BME280;34681;49.188;-0.374;2023-04-08T05:46:47;102185.56;;;10.13;60.03
48862;BME280;34681;49.188;-0.374;2023-04-08T05:49:12;102195.41;;;10.16;59.86
48862;BME280;34681;49.188;-0.374;2023-04-08T05:51:38;102202.53;;;10.19;59.83
48862;BME280;34681;49.188;-0.374;2023-04-08T05:54:03;102194.56;;;10.28;59.44
48862;BME280;34681;49.188;-0.374;2023-04-08T05:56:29;102194.91;;;10.36;59.20
48862;BME280;34681;49.188;-0.374;2023-04-08T05:58:56;102199.38;;;10.37;59.03
48862;BME280;34681;49.188;-0.374;2023-04-08T06:01:22;102201.00;;;10.40;59.05
48862;BME280;34681;49.188;-0.374;2023-04-08T06:03:47;102207.03;;;10.45;59.18
48862;BME280;34681;49.188;-0.374;2023-04-08T06:06:13;102210.09;;;10.53;58.70
48862;BME280;34681;49.188;-0.374;2023-04-08T06:08:38;102205.81;;;10.62;58.16
48862;BME280;34681;49.188;-0.374;2023-04-08T06:11:04;102211.50;;;10.72;57.97
48862;BME280;34681;49.188;-0.374;2023-04-08T06:13:30;102208.81;;;10.83;58.10
48862;BME280;34681;49.188;-0.374;2023-04-08T06:15:55;102217.66;;;10.99;57.71
48862;BME280;34681;49.188;-0.374;2023-04-08T06:18:21;102224.34;;;11.56;56.54
48862;BME280;34681;49.188;-0.374;2023-04-08T06:20:46;102218.78;;;12.27;54.92
48862;BME280;34681;49.188;-0.374;2023-04-08T06:23:12;102218.50;;;13.31;52.72
48862;BME280;34681;49.188;-0.374;2023-04-08T06:25:37;102228.16;;;14.73;50.11
48862;BME280;34681;49.188;-0.374;2023-04-08T06:28:03;102238.28;;;15.63;48.10
48862;BME280;34681;49.188;-0.374;2023-04-08T06:30:28;102228.03;;;16.50;45.66
48862;BME280;34681;49.188;-0.374;2023-04-08T06:32:53;102231.25;;;16.55;44.20
48862;BME280;34681;49.188;-0.374;2023-04-08T06:35:19;102232.66;;;17.34;41.95
48862;BME280;34681;49.188;-0.374;2023-04-08T06:37:44;102236.47;;;17.68;41.29
48862;BME280;34681;49.188;-0.374;2023-04-08T06:40:10;102244.19;;;17.92;40.14
48862;BME280;34681;49.188;-0.374;2023-04-08T06:42:35;102251.31;;;18.83;38.82
48862;BME280;34681;49.188;-0.374;2023-04-08T06:45:03;102251.75;;;19.97;37.44
48862;BME280;34681;49.188;-0.374;2023-04-08T06:47:28;102255.66;;;21.78;35.22
48862;BME280;34681;49.188;-0.374;2023-04-08T06:49:54;102266.47;;;23.90;32.31
48862;BME280;34681;49.188;-0.374;2023-04-08T06:52:22;102266.66;;;25.97;29.51
48862;BME280;34681;49.188;-0.374;2023-04-08T06:54:47;102270.81;;;27.14;28.15
48862;BME280;34681;49.188;-0.374;2023-04-08T06:57:13;102266.88;;;27.22;26.43
48862;BME280;34681;49.188;-0.374;2023-04-08T06:59:38;102274.91;;;27.83;26.13
48862;BME280;34681;49.188;-0.374;2023-04-08T07:02:03;102280.91;;;27.41;24.92
48862;BME280;34681;49.188;-0.374;2023-04-08T07:04:29;102283.34;;;28.71;24.46
48862;BME280;34681;49.188;-0.374;2023-04-08T07:06:54;102271.97;;;29.46;23.58
48862;BME280;34681;49.188;-0.374;2023-04-08T07:09:19;102278.34;;;29.59;23.56
48862;BME280;34681;49.188;-0.374;2023-04-08T07:11:45;102282.25;;;30.07;22.60
48862;BME280;34681;49.188;-0.374;2023-04-08T07:14:11;102281.59;;;30.23;22.78
48862;BME280;34681;49.188;-0.374;2023-04-08T07:16:36;102281.56;;;29.93;22.05
48862;BME280;34681;49.188;-0.374;2023-04-08T07:19:01;102281.06;;;30.14;22.06
48862;BME280;34681;49.188;-0.374;2023-04-08T07:21:27;102274.00;;;30.35;21.92
48862;BME280;34681;49.188;-0.374;2023-04-08T07:23:52;102274.94;;;29.69;22.70
48862;BME280;34681;49.188;-0.374;2023-04-08T07:26:17;102275.91;;;29.93;22.40
48862;BME280;34681;49.188;-0.374;2023-04-08T07:28:43;102277.84;;;28.33;23.98
48862;BME280;34681;49.188;-0.374;2023-04-08T07:31:10;102276.75;;;29.08;24.03
48862;BME280;34681;49.188;-0.374;2023-04-08T07:33:36;102277.81;;;28.39;24.50
48862;BME280;34681;49.188;-0.374;2023-04-08T07:36:01;102268.59;;;25.97;26.70
48862;BME280;34681;49.188;-0.374;2023-04-08T07:38:27;102279.41;;;26.00;27.29
48862;BME280;34681;49.188;-0.374;2023-04-08T07:40:52;102278.56;;;26.19;26.88
48862;BME280;34681;49.188;-0.374;2023-04-08T07:43:17;102281.56;;;24.81;28.56
48862;BME280;34681;49.188;-0.374;2023-04-08T07:45:43;102263.66;;;25.44;28.18
48862;BME280;34681;49.188;-0.374;2023-04-08T07:48:08;102272.97;;;25.52;27.89
48862;BME280;34681;49.188;-0.374;2023-04-08T07:50:35;102266.13;;;25.19;28.15
48862;BME280;34681;49.188;-0.374;2023-04-08T07:53:01;102262.00;;;25.63;27.63
48862;BME280;34681;49.188;-0.374;2023-04-08T07:55:27;102272.31;;;26.11;27.10
48862;BME280;34681;49.188;-0.374;2023-04-08T07:57:52;102275.41;;;26.62;26.75
48862;BME280;34681;49.188;-0.374;2023-04-08T08:00:18;102273.88;;;25.59;28.20
48862;BME280;34681;49.188;-0.374;2023-04-08T08:02:46;102271.41;;;27.36;26.29
48862;BME280;34681;49.188;-0.374;2023-04-08T08:05:12;102279.00;;;27.22;25.56
48862;BME280;34681;49.188;-0.374;2023-04-08T08:07:37;102263.53;;;26.40;26.89
48862;BME280;34681;49.188;-0.374;2023-04-08T08:10:03;102272.09;;;24.82;28.77
48862;BME280;34681;49.188;-0.374;2023-04-08T08:12:28;102276.44;;;26.28;27.92
48862;BME280;34681;49.188;-0.374;2023-04-08T08:14:54;102281.56;;;25.91;27.61
48862;BME280;34681;49.188;-0.374;2023-04-08T08:17:23;102279.00;;;24.15;29.74
48862;BME280;34681;49.188;-0.374;2023-04-08T08:19:49;102280.09;;;26.15;28.77
48862;BME280;34681;49.188;-0.374;2023-04-08T08:22:15;102287.25;;;26.71;27.52
48862;BME280;34681;49.188;-0.374;2023-04-08T08:24:40;102289.63;;;27.00;27.01
48862;BME280;34681;49.188;-0.374;2023-04-08T08:27:09;102293.34;;;24.27;29.80
48862;BME280;34681;49.188;-0.374;2023-04-08T08:29:34;102274.56;;;25.26;29.19
48862;BME280;34681;49.188;-0.374;2023-04-08T08:32:01;102284.44;;;25.63;28.76
48862;BME280;34681;49.188;-0.374;2023-04-08T08:34:27;102292.13;;;23.42;30.69
48862;BME280;34681;49.188;-0.374;2023-04-08T08:36:52;102284.97;;;23.54;31.14
48862;BME280;34681;49.188;-0.374;2023-04-08T08:39:18;102285.75;;;23.63;31.18
48862;BME280;34681;49.188;-0.374;2023-04-08T08:41:43;102288.41;;;21.76;34.01
48862;BME280;34681;49.188;-0.374;2023-04-08T08:44:08;102285.47;;;21.22;35.03
48862;BME280;34681;49.188;-0.374;2023-04-08T08:46:34;102295.66;;;21.54;34.58
48862;BME280;34681;49.188;-0.374;2023-04-08T08:49:00;102281.63;;;21.71;33.26
48862;BME280;34681;49.188;-0.374;2023-04-08T08:51:25;102281.47;;;21.95;34.06
48862;BME280;34681;49.188;-0.374;2023-04-08T08:53:52;102283.13;;;21.03;34.64
48862;BME280;34681;49.188;-0.374;2023-04-08T08:56:17;102283.31;;;19.79;36.21
48862;BME280;34681;49.188;-0.374;2023-04-08T08:58:42;102289.00;;;19.61;36.34
48862;BME280;34681;49.188;-0.374;2023-04-08T09:01:43;102287.41;;;18.91;38.09
48862;BME280;34681;49.188;-0.374;2023-04-08T09:06:35;102288.13;;;18.05;39.34
48862;BME280;34681;49.188;-0.374;2023-04-08T09:09:00;102291.78;;;18.49;39.06
48862;BME280;34681;49.188;-0.374;2023-04-08T09:11:26;102285.81;;;18.80;39.42
48862;BME280;34681;49.188;-0.374;2023-04-08T09:13:52;102287.41;;;19.25;37.53
48862;BME280;34681;49.188;-0.374;2023-04-08T09:16:18;102285.94;;;19.04;38.34
48862;BME280;34681;49.188;-0.374;2023-04-08T09:18:45;102288.97;;;18.93;38.45
48862;BME280;34681;49.188;-0.374;2023-04-08T09:21:12;102278.94;;;18.22;40.45
48862;BME280;34681;49.188;-0.374;2023-04-08T09:23:45;102287.72;;;18.00;39.79
48862;BME280;34681;49.188;-0.374;2023-04-08T09:26:14;102288.03;;;16.87;41.59
48862;BME280;34681;49.188;-0.374;2023-04-08T09:28:41;102288.13;;;16.39;42.96
48862;BME280;34681;49.188;-0.374;2023-04-08T09:31:21;102290.56;;;16.51;43.75
48862;BME280;34681;49.188;-0.374;2023-04-08T09:33:48;102280.59;;;16.88;42.93
48862;BME280;34681;49.188;-0.374;2023-04-08T09:36:15;102289.66;;;16.61;43.36
48862;BME280;34681;49.188;-0.374;2023-04-08T09:38:41;102283.63;;;16.28;44.19
48862;BME280;34681;49.188;-0.374;2023-04-08T09:41:07;102285.06;;;16.13;44.87
48862;BME280;34681;49.188;-0.374;2023-04-08T09:43:43;102277.09;;;15.90;45.07
48862;BME280;34681;49.188;-0.374;2023-04-08T09:46:14;102276.88;;;15.53;46.26
48862;BME280;34681;49.188;-0.374;2023-04-08T09:48:45;102272.38;;;15.52;46.58
48862;BME280;34681;49.188;-0.374;2023-04-08T09:51:15;102278.41;;;15.77;46.59
48862;BME280;34681;49.188;-0.374;2023-04-08T09:53:45;102286.25;;;15.91;46.20
48862;BME280;34681;49.188;-0.374;2023-04-08T09:56:12;102276.78;;;15.64;46.82
48862;BME280;34681;49.188;-0.374;2023-04-08T09:58:41;102282.72;;;15.69;46.78
48862;BME280;34681;49.188;-0.374;2023-04-08T10:01:13;102279.00;;;15.90;46.04
48862;BME280;34681;49.188;-0.374;2023-04-08T10:03:39;102286.38;;;15.70;46.95
48862;BME280;34681;49.188;-0.374;2023-04-08T10:06:10;102281.56;;;16.30;46.05
48862;BME280;34681;49.188;-0.374;2023-04-08T10:08:36;102277.91;;;16.58;45.08
48862;BME280;34681;49.188;-0.374;2023-04-08T10:11:01;102277.13;;;16.85;43.55
48862;BME280;34681;49.188;-0.374;2023-04-08T10:13:27;102279.97;;;16.37;45.04
48862;BME280;34681;49.188;-0.374;2023-04-08T10:16:23;102273.31;;;16.01;45.93
48862;BME280;34681;49.188;-0.374;2023-04-08T10:18:54;102280.59;;;15.83;45.72
48862;BME280;34681;49.188;-0.374;2023-04-08T10:21:50;102267.47;;;15.56;45.84
48862;BME280;34681;49.188;-0.374;2023-04-08T10:24:15;102271.16;;;15.26;46.73
48862;BME280;34681;49.188;-0.374;2023-04-08T10:26:45;102272.56;;;15.20;46.00
48862;BME280;34681;49.188;-0.374;2023-04-08T10:31:53;102270.06;;;14.77;46.71
48862;BME280;34681;49.188;-0.374;2023-04-08T10:34:23;102266.84;;;15.02;46.14
48862;BME280;34681;49.188;-0.374;2023-04-08T10:36:53;102271.78;;;14.99;46.28
48862;BME280;34681;49.188;-0.374;2023-04-08T10:39:19;102277.00;;;15.02;46.68
48862;BME280;34681;49.188;-0.374;2023-04-08T10:41:47;102263.97;;;14.73;47.85
48862;BME280;34681;49.188;-0.374;2023-04-08T10:44:24;102259.97;;;14.87;48.53
48862;BME280;34681;49.188;-0.374;2023-04-08T10:46:51;102261.81;;;15.07;46.87
48862;BME280;34681;49.188;-0.374;2023-04-08T10:49:17;102264.78;;;14.95;46.60
48862;BME280;34681;49.188;-0.374;2023-04-08T10:51:43;102265.47;;;15.27;46.42
48862;BME280;34681;49.188;-0.374;2023-04-08T10:54:11;102263.34;;;15.31;45.67
48862;BME280;34681;49.188;-0.374;2023-04-08T10:56:49;102263.47;;;15.39;45.37
48862;BME280;34681;49.188;-0.374;2023-04-08T10:59:16;102269.44;;;15.44;46.00
48862;BME280;34681;49.188;-0.374;2023-04-08T11:01:43;102260.81;;;15.78;45.08
48862;BME280;34681;49.188;-0.374;2023-04-08T11:04:13;102269.25;;;15.66;45.72
48862;BME280;34681;49.188;-0.374;2023-04-08T11:06:41;102261.34;;;15.52;46.60
48862;BME280;34681;49.188;-0.374;2023-04-08T11:09:07;102260.97;;;15.76;47.84
48862;BME280;34681;49.188;-0.374;2023-04-08T11:11:33;102260.81;;;15.97;48.36
48862;BME280;34681;49.188;-0.374;2023-04-08T11:13:58;102264.75;;;15.65;47.04
48862;BME280;34681;49.188;-0.374;2023-04-08T11:16:25;102256.91;;;15.21;48.90
48862;BME280;34681;49.188;-0.374;2023-04-08T11:18:52;102258.84;;;14.89;48.72
48862;BME280;34681;49.188;-0.374;2023-04-08T11:21:18;102256.41;;;15.06;48.83
48862;BME280;34681;49.188;-0.374;2023-04-08T11:23:43;102255.50;;;14.96;49.18
48862;BME280;34681;49.188;-0.374;2023-04-08T11:26:09;102266.84;;;15.42;48.19
48862;BME280;34681;49.188;-0.374;2023-04-08T11:28:35;102253.25;;;15.20;49.88
48862;BME280;34681;49.188;-0.374;2023-04-08T11:31:01;102243.94;;;15.02;50.25
48862;BME280;34681;49.188;-0.374;2023-04-08T11:33:30;102245.31;;;15.27;49.40
48862;BME280;34681;49.188;-0.374;2023-04-08T11:35:56;102259.72;;;15.40;49.73
48862;BME280;34681;49.188;-0.374;2023-04-08T11:38:23;102255.88;;;16.10;48.06
48862;BME280;34681;49.188;-0.374;2023-04-08T11:40:56;102245.19;;;16.54;46.80
48862;BME280;34681;49.188;-0.374;2023-04-08T11:43:23;102251.41;;;15.90;48.43
48862;BME280;34681;49.188;-0.374;2023-04-08T11:45:49;102251.53;;;15.29;49.46
48862;BME280;34681;49.188;-0.374;2023-04-08T11:48:16;102258.72;;;15.41;50.11
48862;BME280;34681;49.188;-0.374;2023-04-08T11:50:42;102247.53;;;15.52;49.14
48862;BME280;34681;49.188;-0.374;2023-04-08T11:53:24;102247.78;;;15.30;49.26
48862;BME280;34681;49.188;-0.374;2023-04-08T11:55:49;102245.97;;;15.00;49.59
48862;BME280;34681;49.188;-0.374;2023-04-08T11:58:15;102247.66;;;14.91;50.03
48862;BME280;34681;49.188;-0.374;2023-04-08T12:00:41;102240.50;;;14.79;49.92
48862;BME280;34681;49.188;-0.374;2023-04-08T12:03:07;102252.00;;;15.24;49.57
48862;BME280;34681;49.188;-0.374;2023-04-08T12:05:32;102244.84;;;15.22;50.19
48862;BME280;34681;49.188;-0.374;2023-04-08T12:07:58;102243.69;;;15.14;49.69
48862;BME280;34681;49.188;-0.374;2023-04-08T12:10:23;102230.25;;;15.40;48.99
48862;BME280;34681;49.188;-0.374;2023-04-08T12:12:51;102227.50;;;15.60;49.41
48862;BME280;34681;49.188;-0.374;2023-04-08T12:15:17;102227.13;;;15.64;49.12
48862;BME280;34681;49.188;-0.374;2023-04-08T12:17:43;102232.75;;;15.63;48.06
48862;BME280;34681;49.188;-0.374;2023-04-08T12:20:10;102234.34;;;15.56;48.62
48862;BME280;34681;49.188;-0.374;2023-04-08T12:22:36;102238.25;;;15.53;49.43
48862;BME280;34681;49.188;-0.374;2023-04-08T12:25:01;102223.19;;;15.77;48.02
48862;BME280;34681;49.188;-0.374;2023-04-08T12:27:28;102226.38;;;15.62;48.59
48862;BME280;34681;49.188;-0.374;2023-04-08T12:29:54;102222.31;;;15.76;48.76
48862;BME280;34681;49.188;-0.374;2023-04-08T12:32:19;102214.78;;;15.78;49.21
48862;BME280;34681;49.188;-0.374;2023-04-08T12:34:45;102215.16;;;15.54;49.84
48862;BME280;34681;49.188;-0.374;2023-04-08T12:37:11;102218.50;;;15.58;48.73
48862;BME280;34681;49.188;-0.374;2023-04-08T12:39:37;102207.91;;;15.53;48.73
48862;BME280;34681;49.188;-0.374;2023-04-08T12:42:02;102212.13;;;15.48;48.54
48862;BME280;34681;49.188;-0.374;2023-04-08T12:44:28;102217.03;;;15.44;48.73
48862;BME280;34681;49.188;-0.374;2023-04-08T12:46:54;102219.38;;;15.58;48.56
48862;BME280;34681;49.188;-0.374;2023-04-08T12:49:20;102213.88;;;15.49;50.17
48862;BME280;34681;49.188;-0.374;2023-04-08T12:51:46;102209.72;;;15.64;48.93
48862;BME280;34681;49.188;-0.374;2023-04-08T12:54:11;102210.72;;;15.82;48.75